Time;durP1;ratioP1;P1;durP2;ratioP2;P2;SDS_P1;SDS_P2;PMS_P1;PMS_P2;Temp;Humidity;BMP_temperature;BMP_pressure;BME280_temperature;BME280_humidity;BME280_pressure;Samples;Min_cycle;Max_cycle;Signal;HPM_P1;HPM_P2
2023/01/01 00:01:49;;;;;;;18.60;14.15;;;;;;;8.35;63.64;100924.76;1729924;81;21143;-64
2023/01/01 00:04:16;;;;;;;18.15;14.75;;;;;;;8.44;63.50;100921.19;1699125;83;21079;-64
2023/01/01 00:06:42;;;;;;;20.10;15.78;;;;;;;8.51;63.46;100927.77;1713305;81;21593;-66
2023/01/01 00:11:54;;;;;;;21.42;16.12;;;;;;;8.58;63.31;100922.49;1696872;81;21685;-66
2023/01/01 00:14:21;;;;;;;20.15;15.75;;;;;;;8.57;63.25;100924.73;1689260;83;21003;-66
2023/01/01 00:16:47;;;;;;;21.93;15.53;;;;;;;8.57;63.33;100933.91;1681129;83;21049;-67
2023/01/01 00:19:14;;;;;;;19.73;15.53;;;;;;;8.55;63.37;100927.92;1696756;83;21282;-60
2023/01/01 00:21:41;;;;;;;21.23;15.60;;;;;;;8.57;63.34;100931.77;1692546;83;21059;-68
2023/01/01 00:24:08;;;;;;;19.87;15.18;;;;;;;8.65;63.23;100926.41;1714628;82;21089;-66
2023/01/01 00:26:34;;;;;;;20.60;15.55;;;;;;;8.70;63.13;100923.02;1706853;82;21717;-66
2023/01/01 00:29:01;;;;;;;18.75;14.60;;;;;;;8.70;63.16;100920.39;1703510;82;21568;-67
2023/01/01 00:31:28;;;;;;;21.68;16.35;;;;;;;8.73;63.14;100930.70;1715727;82;21244;-66
2023/01/01 00:33:54;;;;;;;20.68;15.48;;;;;;;8.72;63.13;100918.98;1706915;82;21017;-67
2023/01/01 00:36:22;;;;;;;20.35;16.12;;;;;;;8.71;63.21;100908.14;1712336;82;21743;-66
2023/01/01 00:38:49;;;;;;;20.92;15.03;;;;;;;8.67;63.29;100906.16;1714595;82;21106;-67
2023/01/01 00:41:16;;;;;;;18.90;14.93;;;;;;;8.72;63.31;100916.36;1726889;82;21518;-69
2023/01/01 00:43:42;;;;;;;20.62;15.25;;;;;;;8.79;63.19;100915.02;1715064;82;21109;-67
2023/01/01 00:46:09;;;;;;;21.87;16.45;;;;;;;8.88;63.05;100909.68;1713306;81;21564;-66
2023/01/01 00:48:36;;;;;;;21.05;16.32;;;;;;;8.91;63.03;100899.82;1717116;82;21109;-67
2023/01/01 00:51:03;;;;;;;21.60;16.67;;;;;;;8.92;62.98;100904.59;1692749;83;21032;-68
2023/01/01 00:53:29;;;;;;;20.68;16.75;;;;;;;8.89;62.95;100893.84;1702731;82;21145;-67
2023/01/01 00:55:56;;;;;;;22.62;16.65;;;;;;;8.89;63.01;100902.16;1705037;81;21234;-65
2023/01/01 00:58:23;;;;;;;20.32;16.25;;;;;;;8.88;63.05;100908.37;1718812;81;21071;-65
2023/01/01 01:00:51;;;;;;;23.30;15.58;;;;;;;8.88;63.14;100907.05;1718017;81;21072;-66
2023/01/01 01:03:27;;;;;;;19.15;15.18;;;;;;;8.88;63.18;100898.70;1733099;81;21178;-67
2023/01/01 01:06:05;;;;;;;21.52;15.78;;;;;;;8.99;63.06;100886.18;1715248;82;21612;-67
2023/01/01 01:08:34;;;;;;;20.97;15.43;;;;;;;9.04;62.94;100888.52;1736994;81;21252;-67
2023/01/01 01:11:15;;;;;;;20.60;15.40;;;;;;;9.02;62.94;100875.48;1740811;81;21705;-69
2023/01/01 01:13:43;;;;;;;22.10;16.37;;;;;;;9.02;63.00;100874.66;1721276;81;21159;-65
2023/01/01 01:16:14;;;;;;;20.40;14.75;;;;;;;9.00;63.04;100868.67;1709003;82;21696;-68
2023/01/01 01:18:41;;;;;;;18.60;15.50;;;;;;;8.99;63.14;100875.68;1706599;82;21614;-67
2023/01/01 01:21:08;;;;;;;20.57;15.03;;;;;;;8.98;63.23;100875.33;1694309;83;21188;-66
2023/01/01 01:23:35;;;;;;;19.15;14.20;;;;;;;9.02;63.20;100885.98;1696803;82;21067;-67
2023/01/01 01:26:13;;;;;;;19.45;14.50;;;;;;;9.08;63.10;100888.22;1704203;81;21075;-66
2023/01/01 01:28:40;;;;;;;18.12;15.53;;;;;;;9.16;63.04;100889.48;1714919;82;21117;-66
2023/01/01 01:31:07;;;;;;;20.37;16.00;;;;;;;9.18;63.02;100891.53;1705985;82;21536;-67
2023/01/01 01:33:35;;;;;;;21.10;15.90;;;;;;;9.17;63.03;100886.77;1711330;81;21544;-65
2023/01/01 01:36:03;;;;;;;21.00;15.40;;;;;;;9.14;63.07;100880.87;1702718;81;21123;-67
2023/01/01 01:38:30;;;;;;;17.48;14.58;;;;;;;9.14;63.13;100888.75;1704696;81;21077;-66
2023/01/01 01:40:57;;;;;;;19.42;14.73;;;;;;;9.14;63.22;100884.81;1702539;82;21097;-65
2023/01/01 01:43:33;;;;;;;18.45;14.35;;;;;;;9.16;63.20;100881.61;1707383;82;21039;-67
2023/01/01 01:46:06;;;;;;;18.77;14.63;;;;;;;9.25;63.11;100882.33;1703866;82;21951;-66
2023/01/01 01:48:40;;;;;;;19.40;15.20;;;;;;;9.31;63.00;100877.96;1711422;82;21190;-68
2023/01/01 01:51:07;;;;;;;20.70;14.47;;;;;;;9.34;62.93;100869.88;1706747;82;21067;-66
2023/01/01 01:53:38;;;;;;;20.08;14.63;;;;;;;9.33;62.94;100868.22;1724568;81;21045;-65
2023/01/01 01:56:11;;;;;;;18.57;14.63;;;;;;;9.33;62.98;100871.30;1691086;83;21079;-63
2023/01/01 01:58:37;;;;;;;18.87;14.90;;;;;;;9.30;63.06;100876.30;1721218;82;21043;-65
2023/01/01 02:01:04;;;;;;;18.90;14.75;;;;;;;9.30;63.13;100885.49;1681351;83;21096;-67
2023/01/01 02:03:48;;;;;;;16.37;13.13;;;;;;;9.32;63.10;100876.20;1696413;83;21105;-65
2023/01/01 02:06:15;;;;;;;18.85;13.62;;;;;;;9.42;63.00;100878.09;1701749;81;21144;-68
2023/01/01 02:08:43;;;;;;;19.05;15.30;;;;;;;9.47;62.84;100881.25;1714861;81;21093;-67
2023/01/01 02:11:11;;;;;;;16.95;13.55;;;;;;;9.45;62.86;100884.45;1702786;82;21253;-68
2023/01/01 02:13:38;;;;;;;18.77;14.05;;;;;;;9.45;62.93;100882.31;1709688;82;21122;-67
2023/01/01 02:16:28;;;;;;;16.37;13.50;;;;;;;9.45;62.96;100875.75;1706259;82;21111;-67
2023/01/01 02:19:14;;;;;;;19.15;14.45;;;;;;;9.44;63.03;100874.88;1695246;82;21129;-67
2023/01/01 02:22:03;;;;;;;19.07;13.60;;;;;;;9.44;63.06;100865.69;1721315;82;22220;-67
2023/01/01 02:24:54;;;;;;;16.90;13.40;;;;;;;9.49;63.07;100873.27;1681268;83;22288;-67
2023/01/01 02:27:29;;;;;;;18.42;13.20;;;;;;;9.56;62.91;100864.50;1728293;81;21059;-67
2023/01/01 02:30:05;;;;;;;18.45;13.95;;;;;;;9.58;62.85;100856.89;1739360;80;21083;-68
2023/01/01 02:32:45;;;;;;;18.55;13.58;;;;;;;9.59;62.89;100862.98;1736624;81;21132;-67
2023/01/01 02:35:35;;;;;;;21.00;13.88;;;;;;;9.57;62.93;100864.39;1713757;81;21512;-69
2023/01/01 02:38:19;;;;;;;18.15;13.93;;;;;;;9.56;63.00;100869.75;1720674;81;21563;-68
2023/01/01 02:40:50;;;;;;;19.42;14.47;;;;;;;9.53;63.11;100861.63;1691384;83;21039;-67
2023/01/01 02:43:17;;;;;;;15.05;12.53;;;;;;;9.53;63.19;100855.50;1695002;83;21050;-67
2023/01/01 02:45:43;;;;;;;16.40;12.23;;;;;;;9.55;63.20;100857.55;1724190;81;21022;-67
2023/01/01 02:48:41;;;;;;;15.90;12.47;;;;;;;9.64;63.05;100858.25;1718041;81;21080;-69
2023/01/01 02:51:31;;;;;;;16.20;12.63;;;;;;;9.71;62.92;100868.70;1697429;82;21586;-68
2023/01/01 02:54:18;;;;;;;16.45;13.30;;;;;;;9.71;62.91;100859.98;1719842;81;21113;-67
2023/01/01 02:57:02;;;;;;;20.88;12.90;;;;;;;9.70;62.97;100855.21;1720788;81;21421;-67
2023/01/01 03:00:18;;;;;;;17.90;11.93;;;;;;;9.68;63.01;100854.45;1702647;83;21109;-67
2023/01/01 03:03:08;;;;;;;17.45;13.05;;;;;;;9.65;63.10;100857.31;1704019;82;21145;-66
2023/01/01 03:09:03;;;;;;;14.85;11.50;;;;;;;9.65;63.21;100863.89;1707934;82;21074;-69
2023/01/01 03:11:45;;;;;;;16.05;11.80;;;;;;;9.74;63.10;100853.20;1701436;82;20995;-66
2023/01/01 03:14:41;;;;;;;17.98;12.50;;;;;;;9.78;63.01;100862.06;1699656;82;21212;-68
2023/01/01 03:17:22;;;;;;;14.93;12.05;;;;;;;9.79;63.03;100866.39;1712583;82;21031;-67
2023/01/01 03:19:49;;;;;;;15.60;11.83;;;;;;;9.79;63.02;100858.50;1703201;81;21843;-69
2023/01/01 03:22:16;;;;;;;18.32;12.05;;;;;;;9.77;63.08;100856.46;1699761;82;21505;-67
2023/01/01 03:24:55;;;;;;;16.30;12.07;;;;;;;9.77;63.18;100853.83;1704397;81;21157;-68
2023/01/01 03:27:34;;;;;;;15.72;11.60;;;;;;;9.78;63.19;100858.13;1708354;82;21078;-67
2023/01/01 03:30:07;;;;;;;15.38;10.50;;;;;;;9.85;63.10;100868.60;1709741;81;21547;-67
2023/01/01 03:35:24;;;;;;;16.73;11.75;;;;;;;9.97;62.89;100862.96;1709622;82;21122;-68
2023/01/01 03:37:52;;;;;;;16.20;11.73;;;;;;;9.97;62.93;100860.33;1693610;82;21076;-67
2023/01/01 03:40:19;;;;;;;13.68;11.05;;;;;;;9.98;62.99;100853.28;1701967;82;21529;-66
2023/01/01 03:42:53;;;;;;;16.17;10.80;;;;;;;9.98;63.00;100850.65;1703636;82;21546;-67
2023/01/01 03:45:24;;;;;;;15.18;11.60;;;;;;;9.96;63.01;100843.34;1704811;82;21283;-68
2023/01/01 03:47:51;;;;;;;16.12;11.30;;;;;;;9.95;63.10;100845.60;1711039;82;21122;-68
2023/01/01 03:50:17;;;;;;;14.60;10.85;;;;;;;9.98;63.13;100845.39;1703125;82;21065;-69
2023/01/01 03:53:04;;;;;;;13.30;9.25;;;;;;;10.07;63.03;100847.84;1706098;82;21773;-69
2023/01/01 03:55:36;;;;;;;12.68;10.13;;;;;;;10.15;62.88;100850.77;1702090;82;21598;-67
2023/01/01 03:58:19;;;;;;;13.98;10.18;;;;;;;10.15;62.89;100845.03;1705934;83;21738;-67
2023/01/01 04:00:54;;;;;;;14.40;10.98;;;;;;;10.16;62.85;100857.73;1713613;82;21085;-66
2023/01/01 04:03:26;;;;;;;15.90;11.45;;;;;;;10.16;62.88;100858.55;1708358;82;21223;-66
2023/01/01 04:05:52;;;;;;;13.32;10.30;;;;;;;10.12;62.95;100878.59;1702741;82;21073;-68
2023/01/01 04:08:19;;;;;;;15.03;9.68;;;;;;;10.13;63.01;100862.71;1703728;82;21089;-65
2023/01/01 04:10:56;;;;;;;14.55;9.90;;;;;;;10.21;62.91;100868.27;1705966;81;21166;-66
2023/01/01 04:13:23;;;;;;;12.28;9.25;;;;;;;10.27;62.78;100872.28;1697847;83;21046;-68
2023/01/01 04:15:50;;;;;;;13.10;9.93;;;;;;;10.28;62.80;100865.22;1709360;82;21153;-66
2023/01/01 04:18:17;;;;;;;14.70;10.78;;;;;;;10.27;62.82;100880.63;1702492;82;21062;-65
2023/01/01 04:20:43;;;;;;;14.60;10.90;;;;;;;10.25;62.87;100880.73;1713002;82;21141;-65
2023/01/01 04:23:10;;;;;;;14.83;9.93;;;;;;;10.24;62.92;100877.75;1703624;82;21272;-71
2023/01/01 04:25:36;;;;;;;13.22;9.80;;;;;;;10.23;62.97;100882.15;1708139;82;21068;-67
2023/01/01 04:28:04;;;;;;;13.88;9.65;;;;;;;10.25;62.97;100861.00;1701529;82;21017;-66
2023/01/01 04:30:30;;;;;;;12.47;9.40;;;;;;;10.34;62.83;100864.34;1706181;81;21121;-67
2023/01/01 04:32:56;;;;;;;13.62;9.70;;;;;;;10.40;62.69;100866.52;1694897;82;21136;-67
2023/01/01 04:35:23;;;;;;;12.35;9.38;;;;;;;10.41;62.69;100864.26;1706926;82;21409;-68
2023/01/01 04:37:49;;;;;;;15.18;10.10;;;;;;;10.41;62.67;100855.53;1709619;82;21088;-67
2023/01/01 04:40:17;;;;;;;13.95;9.83;;;;;;;10.37;62.73;100856.23;1717041;81;21055;-69
2023/01/01 04:42:45;;;;;;;14.33;10.10;;;;;;;10.35;62.81;100846.75;1688812;82;21093;-67
2023/01/01 04:45:13;;;;;;;10.88;9.03;;;;;;;10.33;62.91;100848.18;1716750;81;21082;-67
2023/01/01 04:47:40;;;;;;;14.03;9.18;;;;;;;10.35;62.90;100850.70;1699748;83;21523;-68
2023/01/01 04:50:07;;;;;;;13.32;9.23;;;;;;;10.43;62.82;100848.85;1705772;81;21125;-65
2023/01/01 04:52:34;;;;;;;12.18;8.93;;;;;;;10.47;62.73;100848.49;1685894;84;21081;-66
2023/01/01 04:55:01;;;;;;;13.90;10.03;;;;;;;10.46;62.79;100844.69;1705001;82;20999;-66
2023/01/01 04:57:29;;;;;;;12.30;9.15;;;;;;;10.45;62.85;100854.84;1712115;82;21085;-66
2023/01/01 04:59:57;;;;;;;13.55;9.53;;;;;;;10.45;62.90;100869.30;1713809;81;21251;-65
2023/01/01 05:02:24;;;;;;;12.73;9.80;;;;;;;10.43;62.94;100869.89;1720758;82;21570;-66
2023/01/01 05:04:50;;;;;;;16.20;9.83;;;;;;;10.42;62.97;100876.92;1682093;84;22083;-67
2023/01/01 05:07:18;;;;;;;12.47;8.58;;;;;;;10.44;62.97;100868.47;1714780;82;21051;-68
2023/01/01 05:09:45;;;;;;;15.75;9.35;;;;;;;10.51;62.88;100874.14;1699684;82;21232;-68
2023/01/01 05:12:12;;;;;;;13.18;9.80;;;;;;;10.54;62.79;100871.26;1701951;82;21284;-66
2023/01/01 05:14:38;;;;;;;12.07;8.73;;;;;;;10.54;62.82;100877.84;1704135;82;21066;-69
2023/01/01 05:17:05;;;;;;;14.95;9.90;;;;;;;10.55;62.82;100877.73;1706371;82;21061;-68
2023/01/01 05:19:31;;;;;;;13.15;9.88;;;;;;;10.53;62.82;100869.11;1714429;82;21134;-65
2023/01/01 05:21:58;;;;;;;11.75;9.00;;;;;;;10.50;62.92;100881.17;1703941;81;22346;-67
2023/01/01 05:24:25;;;;;;;12.85;9.15;;;;;;;10.47;63.00;100880.55;1709822;82;21102;-67
2023/01/01 05:26:52;;;;;;;14.30;9.40;;;;;;;10.44;63.11;100882.94;1705174;82;21074;-68
2023/01/01 05:29:21;;;;;;;13.53;9.00;;;;;;;10.49;63.10;100883.45;1711261;82;21572;-66
2023/01/01 05:31:47;;;;;;;14.25;9.73;;;;;;;10.51;63.14;100889.92;1721362;81;21085;-66
2023/01/01 05:34:13;;;;;;;12.20;8.43;;;;;;;10.47;63.17;100886.64;1709342;82;21162;-66
2023/01/01 05:36:40;;;;;;;13.05;9.05;;;;;;;10.44;63.30;100899.18;1704167;82;21177;-66
2023/01/01 05:39:08;;;;;;;12.58;9.38;;;;;;;10.38;63.45;100887.31;1707823;82;21556;-65
2023/01/01 05:41:35;;;;;;;12.95;9.08;;;;;;;10.35;63.49;100892.31;1705930;82;21134;-66
2023/01/01 05:44:03;;;;;;;14.33;9.40;;;;;;;10.34;63.52;100896.36;1704128;82;21126;-66
2023/01/01 05:46:30;;;;;;;12.00;8.38;;;;;;;10.33;63.60;100894.70;1727879;81;21055;-67
2023/01/01 05:48:56;;;;;;;13.13;8.40;;;;;;;10.37;63.58;100895.70;1720981;83;21093;-68
2023/01/01 05:51:25;;;;;;;11.55;8.60;;;;;;;10.40;63.51;100899.39;1731842;81;21077;-67
2023/01/01 05:53:53;;;;;;;10.98;7.92;;;;;;;10.38;63.57;100889.95;1730011;81;21070;-65
2023/01/01 05:56:20;;;;;;;11.90;8.15;;;;;;;10.36;63.63;100899.27;1716057;81;21011;-68
2023/01/01 05:58:48;;;;;;;10.65;8.08;;;;;;;10.35;63.58;100900.20;1707238;81;21560;-67
2023/01/01 06:01:21;;;;;;;12.23;8.28;;;;;;;10.28;63.74;100901.56;1733468;81;21084;-67
2023/01/01 06:06:50;;;;;;;15.18;8.98;;;;;;;10.10;64.38;100904.16;1778408;79;22696;-62
2023/01/01 06:09:16;;;;;;;13.28;8.55;;;;;;;10.28;63.74;100899.41;1715050;82;21097;-61
2023/01/01 06:11:43;;;;;;;13.53;9.40;;;;;;;10.26;63.72;100903.95;1724918;80;21251;-62
2023/01/01 06:14:10;;;;;;;14.28;8.53;;;;;;;10.22;63.87;100912.05;1734517;81;21042;-62
2023/01/01 06:16:37;;;;;;;12.98;7.87;;;;;;;10.19;63.92;100923.27;1701972;82;21055;-62
2023/01/01 06:19:03;;;;;;;14.78;8.15;;;;;;;10.15;63.99;100925.23;1703457;83;21083;-62
2023/01/01 06:21:30;;;;;;;12.68;8.30;;;;;;;10.15;64.08;100934.92;1706164;83;21024;-61
2023/01/01 06:23:57;;;;;;;10.78;7.90;;;;;;;10.19;64.01;100931.98;1707440;82;21972;-62
2023/01/01 06:26:27;;;;;;;11.03;8.00;;;;;;;10.26;63.95;100924.98;1700407;83;21074;-62
2023/01/01 06:28:54;;;;;;;12.98;8.00;;;;;;;10.26;63.91;100936.34;1703695;83;20955;-62
2023/01/01 06:31:23;;;;;;;10.60;7.97;;;;;;;10.26;63.94;100948.66;1703677;83;21072;-63
2023/01/01 06:33:49;;;;;;;11.55;8.03;;;;;;;10.23;64.01;100946.59;1709398;82;21109;-62
2023/01/01 06:36:18;;;;;;;12.37;8.03;;;;;;;10.20;64.06;100927.55;1705334;83;21250;-63
2023/01/01 06:38:48;;;;;;;12.80;7.95;;;;;;;10.18;64.10;100927.66;1702873;82;21079;-62
2023/01/01 06:41:19;;;;;;;10.98;7.83;;;;;;;10.17;64.11;100926.00;1707483;83;21107;-63
2023/01/01 06:43:45;;;;;;;11.65;7.67;;;;;;;10.17;64.14;100914.16;1705027;84;21277;-65
2023/01/01 06:46:29;;;;;;;11.60;7.72;;;;;;;10.25;64.05;100910.14;1696832;83;21008;-61
2023/01/01 06:48:58;;;;;;;10.08;7.10;;;;;;;10.29;63.93;100906.33;1723364;82;21205;-63
2023/01/01 06:51:28;;;;;;;10.70;7.75;;;;;;;10.29;63.96;100907.20;1709198;82;21531;-62
2023/01/01 06:53:58;;;;;;;11.38;7.42;;;;;;;10.29;63.94;100916.86;1697175;82;21066;-62
2023/01/01 06:56:25;;;;;;;11.78;7.80;;;;;;;10.28;63.96;100928.34;1702368;84;21070;-61
2023/01/01 06:58:51;;;;;;;12.53;7.67;;;;;;;10.26;64.01;100919.73;1701804;82;21094;-63
2023/01/01 07:01:22;;;;;;;9.68;7.78;;;;;;;10.23;64.08;100929.97;1705822;82;21875;-62
2023/01/01 07:03:51;;;;;;;10.82;6.70;;;;;;;10.19;64.15;100928.03;1700970;83;21101;-62
2023/01/01 07:06:18;;;;;;;12.37;8.10;;;;;;;10.22;64.22;100925.65;1689481;83;21055;-62
2023/01/01 07:08:45;;;;;;;15.58;7.55;;;;;;;10.26;64.17;100929.77;1677258;84;21111;-62
2023/01/01 07:11:12;;;;;;;10.93;7.45;;;;;;;10.28;64.09;100944.12;1682549;83;21067;-62
2023/01/01 07:13:39;;;;;;;10.25;7.35;;;;;;;10.28;64.03;100922.60;1682616;84;21243;-63
2023/01/01 07:16:07;;;;;;;12.58;8.33;;;;;;;10.27;64.08;100918.76;1681720;84;21104;-62
2023/01/01 07:18:34;;;;;;;11.90;7.55;;;;;;;10.24;64.07;100913.26;1660203;85;21106;-62
2023/01/01 07:21:03;;;;;;;10.53;6.83;;;;;;;10.22;64.18;100917.76;1731761;81;21049;-62
2023/01/01 07:23:33;;;;;;;10.78;7.78;;;;;;;10.24;64.17;100925.09;1723136;81;22450;-62
2023/01/01 07:26:00;;;;;;;10.23;7.03;;;;;;;10.30;64.04;100925.13;1650008;84;21870;-62
2023/01/01 07:28:27;;;;;;;10.55;7.28;;;;;;;10.35;63.90;100932.25;1707820;81;21355;-62
2023/01/01 07:30:54;;;;;;;12.50;8.15;;;;;;;10.35;63.87;100940.14;1730674;81;21082;-62
2023/01/01 07:33:22;;;;;;;10.90;7.67;;;;;;;10.33;63.81;100925.78;1722121;82;21278;-61
2023/01/01 07:35:51;;;;;;;10.93;7.42;;;;;;;10.31;63.88;100931.59;1734401;81;21564;-61
2023/01/01 07:38:17;;;;;;;12.18;7.45;;;;;;;10.31;63.95;100926.82;1728393;81;21238;-61
2023/01/01 07:40:44;;;;;;;9.88;6.83;;;;;;;10.31;63.97;100929.45;1729081;81;20998;-64
2023/01/01 07:43:13;;;;;;;10.23;6.97;;;;;;;10.33;63.92;100921.83;1730337;81;21065;-62
2023/01/01 07:45:39;;;;;;;9.65;7.20;;;;;;;10.46;63.78;100936.29;1735123;81;21077;-63
2023/01/01 07:48:06;;;;;;;10.63;7.15;;;;;;;10.54;63.53;100927.38;1721105;81;21963;-63
2023/01/01 07:50:33;;;;;;;10.40;7.22;;;;;;;10.59;63.48;100934.47;1690605;82;21905;-62
2023/01/01 07:52:59;;;;;;;11.12;7.65;;;;;;;10.63;63.39;100930.31;1729603;81;21058;-62
2023/01/01 07:55:26;;;;;;;11.43;7.05;;;;;;;10.67;63.33;100937.02;1729932;81;21031;-63
2023/01/01 07:57:52;;;;;;;9.95;7.20;;;;;;;10.69;63.18;100935.11;1654991;85;21070;-62
2023/01/01 08:00:20;;;;;;;10.10;6.62;;;;;;;10.70;63.12;100940.75;1710062;82;21077;-63
2023/01/01 08:02:47;;;;;;;11.97;7.05;;;;;;;10.75;62.97;100928.93;1723319;81;21246;-63
2023/01/01 08:05:13;;;;;;;9.95;7.08;;;;;;;10.87;62.82;100927.69;1735036;81;21046;-63
2023/01/01 08:07:46;;;;;;;11.28;7.53;;;;;;;10.95;62.64;100924.02;1731102;81;21517;-63
2023/01/01 08:10:14;;;;;;;10.88;7.50;;;;;;;11.01;62.51;100926.67;1711854;81;21086;-63
2023/01/01 08:12:41;;;;;;;11.50;7.55;;;;;;;11.04;62.34;100929.09;1730920;81;21533;-62
2023/01/01 08:15:09;;;;;;;11.63;8.05;;;;;;;11.07;62.21;100923.60;1730007;81;21142;-62
2023/01/01 08:17:37;;;;;;;10.65;7.50;;;;;;;11.07;62.24;100920.48;1726437;81;21084;-62
2023/01/01 08:20:06;;;;;;;9.98;7.17;;;;;;;11.07;62.17;100911.75;1729188;81;21073;-62
2023/01/01 08:22:33;;;;;;;9.83;6.53;;;;;;;11.11;62.09;100910.10;1742873;80;21569;-62
2023/01/01 08:24:59;;;;;;;10.60;6.97;;;;;;;11.22;61.86;100909.30;1704234;81;21109;-62
2023/01/01 08:27:26;;;;;;;11.22;7.03;;;;;;;11.27;61.65;100905.84;1645329;86;21360;-62
2023/01/01 08:29:52;;;;;;;11.10;7.90;;;;;;;11.30;61.61;100906.93;1708149;82;21094;-64
2023/01/01 08:32:19;;;;;;;10.15;7.45;;;;;;;11.33;61.58;100908.48;1719256;81;21031;-62
2023/01/01 08:34:45;;;;;;;9.50;7.10;;;;;;;11.38;61.50;100912.09;1708684;82;21071;-62
2023/01/01 08:37:12;;;;;;;10.35;7.20;;;;;;;11.39;61.45;100903.25;1700423;83;21045;-62
2023/01/01 08:39:39;;;;;;;11.35;6.80;;;;;;;11.43;61.38;100908.63;1703139;82;21588;-62
2023/01/01 08:42:06;;;;;;;10.50;7.10;;;;;;;11.46;61.27;100909.72;1647445;85;21074;-62
2023/01/01 08:44:33;;;;;;;12.47;7.15;;;;;;;11.51;61.24;100908.41;1700753;82;21499;-62
2023/01/01 08:46:59;;;;;;;11.68;7.05;;;;;;;11.64;61.02;100901.74;1646272;85;21097;-62
2023/01/01 08:49:26;;;;;;;10.78;7.10;;;;;;;11.71;60.83;100906.90;1711647;82;21098;-62
2023/01/01 08:51:53;;;;;;;9.43;6.67;;;;;;;11.80;60.70;100909.79;1715701;82;21342;-62
2023/01/01 08:54:19;;;;;;;12.20;7.05;;;;;;;11.85;60.43;100915.55;1705528;82;21004;-62
2023/01/01 08:56:46;;;;;;;11.12;6.92;;;;;;;11.87;60.32;100914.97;1701949;82;21555;-62
2023/01/01 08:59:13;;;;;;;9.68;6.80;;;;;;;11.88;60.17;100925.41;1717441;81;21143;-62
2023/01/01 09:01:40;;;;;;;10.70;7.12;;;;;;;11.88;60.20;100912.22;1731114;81;21033;-62
2023/01/01 09:04:11;;;;;;;12.40;7.58;;;;;;;11.90;60.20;100912.08;1731414;81;22216;-62
2023/01/01 09:06:35;;;;;;;9.60;6.47;;;;;;;11.92;60.19;100907.58;1736741;81;21010;-62
2023/01/01 09:09:01;;;;;;;9.18;6.28;;;;;;;11.96;60.13;100905.54;1745403;80;21059;-62
2023/01/01 09:11:28;;;;;;;11.20;7.03;;;;;;;12.04;59.89;100925.56;1739813;80;21033;-62
2023/01/01 09:13:55;;;;;;;12.25;6.75;;;;;;;12.09;59.70;100912.86;1746818;81;21768;-62
2023/01/01 09:16:21;;;;;;;11.12;6.92;;;;;;;12.13;59.67;100898.95;1724190;81;21908;-62
2023/01/01 09:18:48;;;;;;;11.50;7.65;;;;;;;12.15;59.65;100887.30;1742272;81;21250;-62
2023/01/01 09:21:15;;;;;;;10.48;7.17;;;;;;;12.15;59.62;100883.83;1740973;80;20992;-62
2023/01/01 09:23:41;;;;;;;12.10;6.75;;;;;;;12.15;59.69;100883.34;1746902;81;21185;-61
2023/01/01 09:26:08;;;;;;;12.23;7.28;;;;;;;12.16;59.66;100888.98;1744067;81;21127;-62
2023/01/01 09:28:36;;;;;;;10.10;6.80;;;;;;;12.15;59.64;100882.51;1747423;80;21813;-63
2023/01/01 09:31:05;;;;;;;11.95;7.12;;;;;;;12.13;59.78;100880.48;1729458;81;21094;-63
2023/01/01 09:33:33;;;;;;;10.30;6.22;;;;;;;12.09;59.94;100873.29;1714249;82;21047;-64
2023/01/01 09:36:26;;;;;;;8.50;6.25;;;;;;;12.14;59.86;100872.45;1715784;82;21067;-64
2023/01/01 09:38:53;;;;;;;9.95;6.65;;;;;;;12.22;59.71;100866.55;1739714;80;21012;-62
2023/01/01 09:41:42;;;;;;;12.20;6.58;;;;;;;12.29;59.54;100862.48;1737151;81;21528;-62
2023/01/01 09:44:44;;;;;;;9.50;6.10;;;;;;;12.32;59.48;100864.84;1742266;80;21048;-63
2023/01/01 09:47:31;;;;;;;12.93;7.90;;;;;;;12.35;59.42;100869.06;1698248;82;21062;-62
2023/01/01 09:50:04;;;;;;;11.80;6.83;;;;;;;12.37;59.39;100857.89;1724345;82;21063;-62
2023/01/01 09:52:56;;;;;;;11.22;7.17;;;;;;;12.38;59.40;100861.73;1731232;80;21059;-62
2023/01/01 09:55:59;;;;;;;11.00;7.42;;;;;;;12.39;59.37;100866.06;1737386;82;21242;-62
2023/01/01 09:58:27;;;;;;;10.93;7.33;;;;;;;12.40;59.40;100849.24;1740307;80;21906;-62
2023/01/01 10:00:58;;;;;;;9.65;5.85;;;;;;;12.42;59.37;100853.08;1728238;81;21057;-61
2023/01/01 10:03:47;;;;;;;11.38;6.55;;;;;;;12.48;59.37;100845.17;1729946;81;21020;-63
2023/01/01 10:06:23;;;;;;;14.03;8.43;;;;;;;12.60;59.00;100846.81;1736511;81;21771;-62
2023/01/01 10:09:28;;;;;;;8.18;6.20;;;;;;;12.71;58.84;100848.10;1742048;82;21139;-62
2023/01/01 10:12:07;;;;;;;9.43;6.92;;;;;;;12.77;58.55;100861.27;1738340;80;20990;-61
2023/01/01 10:14:41;;;;;;;12.33;7.25;;;;;;;12.79;58.39;100849.63;1735050;81;21012;-62
2023/01/01 10:17:19;;;;;;;9.68;6.35;;;;;;;12.80;58.41;100851.29;1740962;80;21093;-63
2023/01/01 10:19:49;;;;;;;13.03;6.90;;;;;;;12.81;58.41;100849.52;1742346;82;21035;-63
2023/01/01 10:22:27;;;;;;;14.38;8.10;;;;;;;12.87;58.28;100844.20;1735656;81;21905;-63
2023/01/01 10:25:07;;;;;;;9.83;6.47;;;;;;;12.89;58.20;100826.41;1738357;80;21113;-63
2023/01/01 10:27:40;;;;;;;10.18;6.83;;;;;;;12.90;58.11;100837.34;1694851;82;21355;-63
2023/01/01 10:30:21;;;;;;;7.67;5.67;;;;;;;12.90;58.10;100818.86;1696832;82;21063;-63
2023/01/01 10:32:52;;;;;;;9.53;6.00;;;;;;;12.93;58.13;100831.81;1687626;82;21114;-62
2023/01/01 10:35:30;;;;;;;7.80;5.60;;;;;;;13.03;58.14;100822.62;1700942;82;21157;-63
2023/01/01 10:37:57;;;;;;;8.00;5.37;;;;;;;13.15;57.71;100826.89;1698395;82;21051;-62
2023/01/01 10:40:25;;;;;;;13.70;7.08;;;;;;;13.25;57.52;100826.97;1694846;82;21058;-62
2023/01/01 10:42:57;;;;;;;8.60;5.62;;;;;;;13.29;57.45;100831.84;1674733;85;21094;-61
2023/01/01 10:45:35;;;;;;;9.58;6.05;;;;;;;13.32;57.28;100840.87;1678175;84;21059;-61
2023/01/01 10:48:18;;;;;;;8.73;5.85;;;;;;;13.37;57.29;100836.52;1681213;84;21210;-63
2023/01/01 10:50:52;;;;;;;9.88;6.15;;;;;;;13.38;57.25;100835.07;1691816;83;21059;-61
2023/01/01 10:53:42;;;;;;;9.63;6.40;;;;;;;13.38;57.30;100835.07;1695844;84;21584;-63
2023/01/01 10:56:11;;;;;;;9.55;6.22;;;;;;;13.37;57.30;100841.31;1690427;82;21060;-62
2023/01/01 10:58:47;;;;;;;8.93;6.50;;;;;;;13.37;57.38;100838.67;1691070;83;20992;-61
2023/01/01 11:01:21;;;;;;;9.90;6.83;;;;;;;13.41;57.38;100843.70;1674567;84;21128;-62
2023/01/01 11:04:14;;;;;;;8.93;5.70;;;;;;;13.41;57.41;100845.03;1689937;84;21521;-61
2023/01/01 11:06:42;;;;;;;13.05;6.72;;;;;;;13.42;57.34;100842.75;1740432;81;21035;-63
2023/01/01 11:09:26;;;;;;;9.40;6.42;;;;;;;13.47;57.29;100843.20;1739817;81;21032;-62
2023/01/01 11:12:02;;;;;;;8.15;5.05;;;;;;;13.46;57.26;100841.02;1711711;83;21066;-63
2023/01/01 11:14:39;;;;;;;8.03;5.25;;;;;;;13.52;57.16;100839.18;1716542;80;21821;-64
2023/01/01 11:17:07;;;;;;;9.10;6.42;;;;;;;13.66;56.86;100830.55;1733629;82;21008;-63
2023/01/01 11:19:37;;;;;;;9.93;6.33;;;;;;;13.72;56.77;100830.86;1707496;81;21742;-63
2023/01/01 11:22:04;;;;;;;9.75;5.85;;;;;;;13.75;56.64;100831.06;1739261;82;21092;-63
2023/01/01 11:24:32;;;;;;;9.18;6.42;;;;;;;13.78;56.51;100833.45;1740509;81;21663;-69
2023/01/01 11:27:22;;;;;;;11.00;6.37;;;;;;;13.80;56.44;100831.53;1736500;81;21318;-65
2023/01/01 11:29:50;;;;;;;9.80;6.10;;;;;;;13.83;56.30;100842.31;1694492;82;21047;-62
2023/01/01 11:32:28;;;;;;;9.25;6.50;;;;;;;13.85;56.25;100845.20;1686907;84;21599;-63
2023/01/01 11:35:05;;;;;;;9.95;6.05;;;;;;;13.89;56.30;100836.51;1694509;83;21125;-65
2023/01/01 11:37:34;;;;;;;10.70;6.58;;;;;;;13.92;56.21;100840.21;1734202;81;21589;-63
2023/01/01 11:40:02;;;;;;;10.35;6.80;;;;;;;13.96;56.17;100845.58;1726593;80;21192;-63
2023/01/01 11:42:32;;;;;;;13.98;6.72;;;;;;;13.97;56.13;100837.14;1741617;81;21043;-63
2023/01/01 11:45:10;;;;;;;9.80;6.70;;;;;;;13.99;55.96;100838.70;1734999;80;21046;-63
2023/01/01 11:47:39;;;;;;;10.10;6.55;;;;;;;14.03;55.92;100836.62;1696419;83;21173;-63
2023/01/01 11:50:33;;;;;;;11.28;5.72;;;;;;;14.07;55.88;100830.08;1700274;84;21107;-64